createdAt,value
2018-07-22T00:00:15.589Z,4.00
2018-07-22T00:01:15.603Z,4.00
2018-07-22T00:02:15.673Z,4.00
2018-07-22T00:03:15.637Z,4.00
2018-07-22T00:04:15.660Z,4.00
2018-07-22T00:05:15.675Z,4.00
2018-07-22T00:06:15.745Z,4.00
2018-07-22T00:07:15.718Z,4.00
2018-07-22T00:08:15.725Z,4.00
2018-07-22T00:09:15.742Z,4.00
2018-07-22T00:10:15.754Z,4.00
2018-07-22T00:11:15.768Z,4.00
2018-07-22T00:12:15.796Z,4.00
2018-07-22T00:13:15.806Z,4.00
2018-07-22T00:14:15.872Z,4.00
2018-07-22T00:15:15.834Z,4.00
2018-07-22T00:16:15.862Z,4.00
2018-07-22T00:17:15.868Z,4.00
2018-07-22T00:18:15.959Z,4.00
2018-07-22T00:19:15.895Z,4.00
2018-07-22T00:20:15.967Z,4.00
2018-07-22T00:21:15.942Z,4.00
2018-07-22T00:22:15.952Z,4.00
2018-07-22T00:23:15.964Z,4.00
2018-07-22T00:24:16.007Z,4.00
2018-07-22T00:25:16.006Z,4.00
2018-07-22T00:26:16.024Z,4.00
2018-07-22T00:27:16.039Z,4.00
2018-07-22T00:28:16.058Z,4.00
2018-07-22T00:29:16.146Z,4.00
2018-07-22T00:30:16.088Z,4.00
2018-07-22T00:31:16.110Z,4.00
2018-07-22T00:32:16.123Z,4.00
2018-07-22T00:33:16.141Z,4.00
2018-07-22T00:34:16.159Z,4.00
2018-07-22T00:35:16.174Z,4.00
2018-07-22T00:36:16.183Z,4.00
2018-07-22T00:37:16.203Z,4.00
2018-07-22T00:38:16.220Z,4.00
2018-07-22T00:39:16.235Z,4.00
2018-07-22T00:40:16.248Z,4.00
2018-07-22T00:41:16.263Z,4.00
2018-07-22T00:42:16.280Z,4.00
2018-07-22T00:43:16.351Z,4.00
2018-07-22T00:44:16.326Z,4.00
2018-07-22T00:45:16.332Z,4.00
2018-07-22T00:46:16.348Z,4.00
2018-07-22T00:47:16.366Z,4.00
2018-07-22T00:48:16.385Z,4.00
2018-07-22T00:49:16.395Z,4.00
2018-07-22T00:50:16.464Z,4.00
2018-07-22T00:51:16.444Z,4.00
2018-07-22T00:52:16.464Z,4.00
2018-07-22T00:53:16.473Z,4.00
2018-07-22T00:54:16.492Z,4.00
2018-07-22T00:55:16.499Z,4.00
2018-07-22T00:56:16.523Z,4.00
2018-07-22T00:57:16.527Z,4.00
2018-07-22T00:58:16.544Z,4.00
2018-07-22T00:59:16.564Z,4.00
2018-07-22T01:00:16.621Z,4.00
2018-07-22T01:01:16.596Z,4.00
2018-07-22T01:02:16.634Z,4.00
2018-07-22T01:03:16.639Z,4.00
2018-07-22T01:04:16.645Z,4.00
2018-07-22T01:05:16.665Z,4.00
2018-07-22T01:06:16.687Z,4.00
2018-07-22T01:07:16.697Z,4.00
2018-07-22T01:08:16.820Z,4.00
2018-07-22T01:09:16.728Z,4.00
2018-07-22T01:10:16.744Z,4.00
2018-07-22T01:11:16.765Z,4.00
2018-07-22T01:12:16.831Z,4.00
2018-07-22T01:13:16.801Z,4.00
2018-07-22T01:14:16.812Z,4.00
2018-07-22T01:15:16.831Z,4.00
2018-07-22T01:16:16.850Z,4.00
2018-07-22T01:17:16.861Z,4.00
2018-07-22T01:18:16.876Z,4.00
2018-07-22T01:19:16.897Z,4.00
2018-07-22T01:20:16.963Z,4.00
2018-07-22T01:21:16.934Z,4.00
2018-07-22T01:22:16.940Z,4.00
2018-07-22T01:23:16.966Z,4.00
2018-07-22T01:24:16.976Z,4.00
2018-07-22T01:25:16.996Z,4.00
2018-07-22T01:26:17.008Z,4.00
2018-07-22T01:27:17.034Z,4.00
2018-07-22T01:28:17.044Z,4.00
2018-07-22T01:29:17.062Z,4.00
2018-07-22T01:30:17.079Z,4.00
2018-07-22T01:31:17.106Z,4.00
2018-07-22T01:32:17.115Z,4.00
2018-07-22T01:33:17.129Z,4.00
2018-07-22T01:34:17.147Z,4.00
2018-07-22T01:35:17.167Z,4.00
2018-07-22T01:36:17.187Z,4.00
2018-07-22T01:37:17.193Z,4.00
2018-07-22T01:38:17.270Z,4.00
2018-07-22T01:39:17.238Z,4.00
2018-07-22T01:40:17.245Z,4.00
2018-07-22T01:41:17.266Z,4.00
2018-07-22T01:42:17.282Z,4.00
2018-07-22T01:43:17.355Z,4.00
2018-07-22T01:44:17.310Z,4.00
2018-07-22T01:45:17.331Z,4.00
2018-07-22T01:46:17.337Z,4.00
2018-07-22T01:47:17.356Z,4.00
2018-07-22T01:48:17.467Z,4.00
2018-07-22T01:49:17.403Z,4.00
2018-07-22T01:50:17.408Z,4.00
2018-07-22T01:51:17.439Z,4.00
2018-07-22T01:52:17.443Z,4.00
2018-07-22T01:53:17.457Z,4.00
2018-07-22T01:54:17.478Z,4.00
2018-07-22T01:55:17.507Z,4.00
2018-07-22T01:56:17.505Z,4.00
2018-07-22T01:57:17.527Z,4.00
2018-07-22T01:58:17.543Z,4.00
2018-07-22T01:59:17.560Z,4.00
2018-07-22T02:00:17.578Z,4.00
2018-07-22T02:01:17.599Z,4.00
2018-07-22T02:02:17.667Z,4.00
2018-07-22T02:03:17.624Z,4.00
2018-07-22T02:04:17.651Z,4.00
2018-07-22T02:05:17.659Z,4.00
2018-07-22T02:06:17.669Z,4.00
2018-07-22T02:07:17.689Z,4.00
2018-07-22T02:08:17.711Z,4.00
2018-07-22T02:09:17.724Z,4.00
2018-07-22T02:10:17.751Z,4.00
2018-07-22T02:11:17.760Z,4.00
2018-07-22T02:12:17.777Z,4.00
2018-07-22T02:13:17.789Z,4.00
2018-07-22T02:14:17.937Z,4.00
2018-07-22T02:15:17.825Z,4.00
2018-07-22T02:16:17.843Z,4.00
2018-07-22T02:17:17.864Z,4.00
2018-07-22T02:18:17.873Z,4.00
2018-07-22T02:19:17.884Z,4.00
2018-07-22T02:20:17.959Z,4.00
2018-07-22T02:21:17.923Z,4.00
2018-07-22T02:22:17.941Z,4.00
2018-07-22T02:23:17.960Z,4.00
2018-07-22T02:24:17.972Z,4.00
2018-07-22T02:25:17.989Z,4.00
2018-07-22T02:26:18.057Z,4.00
2018-07-22T02:27:18.020Z,4.00
2018-07-22T02:28:18.047Z,4.00
2018-07-22T02:29:18.059Z,4.00
2018-07-22T02:30:18.072Z,4.00
2018-07-22T02:31:18.096Z,4.00
2018-07-22T02:32:18.105Z,4.00
2018-07-22T02:33:18.121Z,4.00
2018-07-22T02:34:18.134Z,4.00
2018-07-22T02:35:18.156Z,4.00
2018-07-22T02:36:18.171Z,4.00
2018-07-22T02:37:18.196Z,4.00
2018-07-22T02:38:18.208Z,4.00
2018-07-22T02:39:18.228Z,4.00
2018-07-22T02:40:18.241Z,4.00
2018-07-22T02:41:18.258Z,4.00
2018-07-22T02:42:18.274Z,4.00
2018-07-22T02:43:18.289Z,4.00
2018-07-22T02:44:18.311Z,4.00
2018-07-22T02:45:18.321Z,4.00
2018-07-22T02:46:18.340Z,4.00
2018-07-22T02:47:18.355Z,4.00
2018-07-22T02:48:18.366Z,4.00
2018-07-22T02:49:18.438Z,4.00
2018-07-22T02:50:18.451Z,4.00
2018-07-22T02:51:18.449Z,4.00
2018-07-22T02:52:18.432Z,4.00
2018-07-22T02:53:18.449Z,4.00
2018-07-22T02:54:18.482Z,4.00
2018-07-22T02:55:18.492Z,4.00
2018-07-22T02:56:18.527Z,4.00
2018-07-22T02:57:18.523Z,4.00
2018-07-22T02:58:18.536Z,4.00
2018-07-22T02:59:18.548Z,4.00
2018-07-22T03:00:18.575Z,4.00
2018-07-22T03:02:26.450Z,4.00
2018-07-22T03:03:18.620Z,4.00
2018-07-22T03:04:18.629Z,4.00
2018-07-22T03:05:18.645Z,4.00
2018-07-22T03:06:18.665Z,4.00
2018-07-22T03:07:18.689Z,4.00
2018-07-22T03:08:18.909Z,4.00
2018-07-22T03:09:18.718Z,4.00
2018-07-22T03:10:18.731Z,4.00
2018-07-22T03:11:18.747Z,4.00
2018-07-22T03:12:18.767Z,4.00
2018-07-22T03:13:18.788Z,4.00
2018-07-22T03:14:18.799Z,4.00
2018-07-22T03:15:18.819Z,4.00
2018-07-22T03:16:18.842Z,4.00
2018-07-22T03:17:18.846Z,4.00
2018-07-22T03:18:18.868Z,4.00
2018-07-22T03:19:18.890Z,4.00
2018-07-22T03:20:18.948Z,4.00
2018-07-22T03:21:18.915Z,4.00
2018-07-22T03:22:18.924Z,4.00
2018-07-22T03:23:18.940Z,4.00
2018-07-22T03:24:18.965Z,4.00
2018-07-22T03:25:18.978Z,4.00
2018-07-22T03:26:19.041Z,4.00
2018-07-22T03:27:19.005Z,4.00
2018-07-22T03:28:19.021Z,4.00
2018-07-22T03:29:19.040Z,4.00
2018-07-22T03:30:19.053Z,4.00
2018-07-22T03:31:19.078Z,4.00
2018-07-22T03:32:19.099Z,4.00
2018-07-22T03:33:19.108Z,4.00
2018-07-22T03:34:19.125Z,4.00
2018-07-22T03:35:19.140Z,4.00
2018-07-22T03:36:19.158Z,4.00
2018-07-22T03:37:19.176Z,4.00
2018-07-22T03:38:19.195Z,4.00
2018-07-22T03:39:19.208Z,4.00
2018-07-22T03:40:19.221Z,4.00
2018-07-22T03:41:19.237Z,4.00
2018-07-22T03:42:19.259Z,4.00
2018-07-22T03:43:19.278Z,4.00
2018-07-22T03:44:19.285Z,4.00
2018-07-22T03:45:19.309Z,4.00
2018-07-22T03:46:19.322Z,4.00
2018-07-22T03:47:19.352Z,4.00
2018-07-22T03:48:19.355Z,4.00
2018-07-22T03:49:19.378Z,4.00
2018-07-22T03:50:19.391Z,4.00
2018-07-22T03:51:19.407Z,4.00
2018-07-22T03:52:19.426Z,4.00
2018-07-22T03:53:19.436Z,4.00
2018-07-22T03:54:19.458Z,4.00
2018-07-22T03:55:19.475Z,4.00
2018-07-22T03:56:19.481Z,4.00
2018-07-22T03:57:19.503Z,4.00
2018-07-22T03:58:19.519Z,4.00
2018-07-22T03:59:19.529Z,4.00
2018-07-22T04:00:19.555Z,4.00
2018-07-22T04:01:19.567Z,4.00
2018-07-22T04:02:19.583Z,4.00
2018-07-22T04:03:19.597Z,4.00
2018-07-22T04:04:19.623Z,4.00
2018-07-22T04:05:19.632Z,4.00
2018-07-22T04:06:19.647Z,4.00
2018-07-22T04:07:19.664Z,4.00
2018-07-22T04:08:19.687Z,4.00
2018-07-22T04:09:19.696Z,4.00
2018-07-22T04:10:19.709Z,4.00
2018-07-22T04:11:19.733Z,4.00
2018-07-22T04:12:19.751Z,4.00
2018-07-22T04:13:19.763Z,4.00
2018-07-22T04:14:19.779Z,4.00
2018-07-22T04:15:19.798Z,4.00
2018-07-22T04:16:19.815Z,4.00
2018-07-22T04:17:19.828Z,4.00
2018-07-22T04:18:19.851Z,4.00
2018-07-22T04:19:19.865Z,4.00
2018-07-22T04:20:19.880Z,4.00
2018-07-22T04:21:19.899Z,4.00
2018-07-22T04:22:19.908Z,4.00
2018-07-22T04:23:19.931Z,4.00
2018-07-22T04:24:19.948Z,4.00
2018-07-22T04:25:19.960Z,4.00
2018-07-22T04:26:19.987Z,4.00
2018-07-22T04:27:19.988Z,4.00
2018-07-22T04:28:20.009Z,4.00
2018-07-22T04:29:20.026Z,4.00
2018-07-22T04:30:20.046Z,4.00
2018-07-22T04:31:20.061Z,4.00
2018-07-22T04:32:20.116Z,4.00
2018-07-22T04:33:20.093Z,4.00
2018-07-22T04:34:20.101Z,4.00
2018-07-22T04:35:20.126Z,4.00
2018-07-22T04:36:20.140Z,4.00
2018-07-22T04:37:20.161Z,4.00
2018-07-22T04:38:20.174Z,4.00
2018-07-22T04:39:20.186Z,4.00
2018-07-22T04:40:20.200Z,4.00
2018-07-22T04:41:20.220Z,4.00
2018-07-22T04:42:20.234Z,4.00
2018-07-22T04:43:20.254Z,4.00
2018-07-22T04:44:20.295Z,4.00
2018-07-22T04:45:20.284Z,4.00
2018-07-22T04:46:20.302Z,4.00
2018-07-22T04:47:20.322Z,4.00
2018-07-22T04:48:20.339Z,4.00
2018-07-22T04:49:20.352Z,4.00
2018-07-22T04:50:20.406Z,4.00
2018-07-22T04:51:20.385Z,4.00
2018-07-22T04:52:20.395Z,4.00
2018-07-22T04:53:20.422Z,4.00
2018-07-22T04:54:20.438Z,4.00
2018-07-22T04:55:20.448Z,4.00
2018-07-22T04:56:20.473Z,0.00
2018-07-22T04:57:20.483Z,0.00
2018-07-22T04:58:20.499Z,0.00
2018-07-22T04:59:20.512Z,0.00
2018-07-22T05:00:20.532Z,0.00
2018-07-22T05:01:20.550Z,0.00
2018-07-22T05:02:20.577Z,4.00
2018-07-22T05:03:20.587Z,4.00
2018-07-22T05:04:20.601Z,4.00
2018-07-22T05:05:20.617Z,4.00
2018-07-22T05:06:20.630Z,0.00
2018-07-22T05:07:20.650Z,4.00
2018-07-22T05:08:20.669Z,4.00
2018-07-22T05:09:20.674Z,8.00
2018-07-22T05:10:20.696Z,4.00
2018-07-22T05:11:20.711Z,4.00
2018-07-22T05:12:20.731Z,8.00
2018-07-22T05:13:20.745Z,8.00
2018-07-22T05:14:20.758Z,12.00
2018-07-22T05:15:20.768Z,12.00
2018-07-22T05:16:20.793Z,12.00
2018-07-22T05:17:20.803Z,16.00
2018-07-22T05:18:20.823Z,16.00
2018-07-22T05:19:20.835Z,24.00
2018-07-22T05:20:20.858Z,28.00
2018-07-22T05:21:20.875Z,28.00
2018-07-22T05:22:20.889Z,36.00
2018-07-22T05:23:20.900Z,40.00
2018-07-22T05:24:20.919Z,44.00
2018-07-22T05:25:20.936Z,48.00
2018-07-22T05:26:20.957Z,52.00
2018-07-22T05:27:20.977Z,60.00
2018-07-22T05:28:21.046Z,68.00
2018-07-22T05:29:20.999Z,72.00
2018-07-22T05:30:21.019Z,80.00
2018-07-22T05:31:21.039Z,88.00
2018-07-22T05:32:21.055Z,92.00
2018-07-22T05:33:21.155Z,104.00
2018-07-22T05:34:21.087Z,112.00
2018-07-22T05:35:21.102Z,120.00
2018-07-22T05:36:21.120Z,128.00
2018-07-22T05:37:21.135Z,140.00
2018-07-22T05:38:21.155Z,148.00
2018-07-22T05:39:21.173Z,148.00
2018-07-22T05:40:21.186Z,164.00
2018-07-22T05:41:21.195Z,180.00
2018-07-22T05:42:21.219Z,200.00
2018-07-22T05:43:21.237Z,208.00
2018-07-22T05:44:21.247Z,228.00
2018-07-22T05:45:21.270Z,244.00
2018-07-22T05:46:21.279Z,252.00
2018-07-22T05:47:21.303Z,264.00
2018-07-22T05:48:21.320Z,260.00
2018-07-22T05:49:21.327Z,272.00
2018-07-22T05:50:21.348Z,280.00
2018-07-22T05:51:21.367Z,292.00
2018-07-22T05:52:21.385Z,312.00
2018-07-22T05:53:21.396Z,308.00
2018-07-22T05:54:21.406Z,324.00
2018-07-22T05:55:21.426Z,336.00
2018-07-22T05:56:21.442Z,348.00
2018-07-22T05:57:21.456Z,392.00
2018-07-22T05:58:21.475Z,452.00
2018-07-22T05:59:21.492Z,508.00
2018-07-22T06:00:21.513Z,532.00
2018-07-22T06:01:21.529Z,548.00
2018-07-22T06:02:21.537Z,608.00
2018-07-22T06:03:21.557Z,632.00
2018-07-22T06:04:21.575Z,708.00
2018-07-22T06:05:21.589Z,704.00
2018-07-22T06:06:21.604Z,732.00
2018-07-22T06:07:21.622Z,760.00
2018-07-22T06:08:21.644Z,796.00
2018-07-22T06:09:21.656Z,712.00
2018-07-22T06:10:21.675Z,684.00
2018-07-22T06:11:21.688Z,676.00
2018-07-22T06:12:21.704Z,712.00
2018-07-22T06:13:21.724Z,728.00
2018-07-22T06:14:21.739Z,736.00
2018-07-22T06:15:21.761Z,736.00
2018-07-22T06:16:21.776Z,820.00
2018-07-22T06:17:21.786Z,868.00
2018-07-22T06:18:21.798Z,968.00
2018-07-22T06:19:21.829Z,980.00
2018-07-22T06:20:21.837Z,948.00
2018-07-22T06:21:21.854Z,888.00
2018-07-22T06:22:21.865Z,912.00
2018-07-22T06:23:21.903Z,996.00
2018-07-22T06:24:21.904Z,956.00
2018-07-22T06:25:21.918Z,1056.00
2018-07-22T06:26:21.935Z,1052.00
2018-07-22T06:27:21.955Z,988.00
2018-07-22T06:28:21.973Z,1048.00
2018-07-22T06:29:21.982Z,1208.00
2018-07-22T06:30:22.003Z,1112.00
2018-07-22T06:31:22.029Z,1108.00
2018-07-22T06:32:22.086Z,1384.00
2018-07-22T06:33:22.054Z,1296.00
2018-07-22T06:34:22.156Z,1436.00
2018-07-22T06:35:22.147Z,1552.00
2018-07-22T06:36:22.097Z,1392.00
2018-07-22T06:37:22.115Z,1364.00
2018-07-22T06:38:22.168Z,1208.00
2018-07-22T06:39:22.173Z,1292.00
2018-07-22T06:40:22.166Z,1492.00
2018-07-22T06:41:22.185Z,1712.00
2018-07-22T06:42:22.204Z,1728.00
2018-07-22T06:43:22.212Z,1708.00
2018-07-22T06:44:22.230Z,1732.00
2018-07-22T06:45:22.248Z,2136.00
2018-07-22T06:46:22.266Z,1972.00
2018-07-22T06:47:22.282Z,2000.00
2018-07-22T06:48:22.299Z,2352.00
2018-07-22T06:49:22.314Z,2076.00
2018-07-22T06:50:22.326Z,2028.00
2018-07-22T06:51:22.347Z,2236.00
2018-07-22T06:52:22.368Z,2076.00
2018-07-22T06:53:22.377Z,2184.00
2018-07-22T06:54:22.506Z,2472.00
2018-07-22T06:55:22.416Z,2184.00
2018-07-22T06:56:22.433Z,3128.00
2018-07-22T06:57:22.509Z,2432.00
2018-07-22T06:58:22.549Z,2404.00
2018-07-22T06:59:22.481Z,2428.00
2018-07-22T07:00:22.500Z,4468.00
2018-07-22T07:01:22.513Z,5772.00
2018-07-22T07:02:22.525Z,2512.00
2018-07-22T07:03:22.546Z,5764.00
2018-07-22T07:04:22.628Z,3652.00
2018-07-22T07:05:22.647Z,5936.00
2018-07-22T07:06:22.593Z,4272.00
2018-07-22T07:07:22.610Z,5588.00
2018-07-22T07:08:22.634Z,5116.00
2018-07-22T07:09:22.656Z,3672.00
2018-07-22T07:10:22.671Z,5316.00
2018-07-22T07:11:22.689Z,6928.00
2018-07-22T07:12:22.697Z,6812.00
2018-07-22T07:13:22.718Z,2816.00
2018-07-22T07:14:22.733Z,5268.00
2018-07-22T07:15:22.746Z,3096.00
2018-07-22T07:16:22.835Z,2636.00
2018-07-22T07:17:22.780Z,4588.00
2018-07-22T07:18:22.799Z,3004.00
2018-07-22T07:19:22.816Z,7380.00
2018-07-22T07:20:22.829Z,4864.00
2018-07-22T07:21:22.845Z,7444.00
2018-07-22T07:22:22.889Z,6896.00
2018-07-22T07:23:22.881Z,7184.00
2018-07-22T07:24:22.896Z,3168.00
2018-07-22T07:25:22.917Z,6536.00
2018-07-22T07:26:22.933Z,7356.00
2018-07-22T07:27:22.955Z,7428.00
2018-07-22T07:28:22.968Z,7428.00
2018-07-22T07:29:22.986Z,7452.00
2018-07-22T07:30:23.017Z,4944.00
2018-07-22T07:31:23.024Z,7576.00
2018-07-22T07:32:23.040Z,7360.00
2018-07-22T07:33:23.053Z,7432.00
2018-07-22T07:34:23.163Z,5560.00
2018-07-22T07:35:23.142Z,7272.00
2018-07-22T07:36:23.120Z,8096.00
2018-07-22T07:37:23.127Z,8188.00
2018-07-22T07:38:23.141Z,8196.00
2018-07-22T07:39:23.166Z,6948.00
2018-07-22T07:40:23.198Z,8288.00
2018-07-22T07:41:23.266Z,8000.00
2018-07-22T07:42:23.265Z,5176.00
2018-07-22T07:43:23.235Z,8752.00
2018-07-22T07:44:23.255Z,8696.00
2018-07-22T07:45:23.269Z,8152.00
2018-07-22T07:46:23.280Z,8708.00
2018-07-22T07:47:23.309Z,6860.00
2018-07-22T07:48:23.322Z,9252.00
2018-07-22T07:49:23.340Z,7312.00
2018-07-22T07:50:23.363Z,7588.00
2018-07-22T07:51:23.372Z,8976.00
2018-07-22T07:52:23.398Z,8908.00
2018-07-22T07:53:23.416Z,9228.00
2018-07-22T07:54:23.434Z,9248.00
2018-07-22T07:55:23.440Z,9000.00
2018-07-22T07:56:23.466Z,9384.00
2018-07-22T07:57:23.483Z,9476.00
2018-07-22T07:58:23.492Z,9696.00
2018-07-22T07:59:23.526Z,9524.00
2018-07-22T08:00:23.531Z,9920.00
2018-07-22T08:01:23.554Z,9896.00
2018-07-22T08:02:23.576Z,8896.00
2018-07-22T08:03:23.590Z,10432.00
2018-07-22T08:04:23.608Z,10456.00
2018-07-22T08:05:23.623Z,9084.00
2018-07-22T08:06:23.642Z,10740.00
2018-07-22T08:07:23.662Z,6972.00
2018-07-22T08:08:23.676Z,9628.00
2018-07-22T08:09:23.703Z,4264.00
2018-07-22T08:10:23.718Z,7616.00
2018-07-22T08:11:23.736Z,11336.00
2018-07-22T08:12:23.760Z,4124.00
2018-07-22T08:13:23.779Z,11724.00
2018-07-22T08:14:23.795Z,10440.00
2018-07-22T08:15:23.810Z,12536.00
2018-07-22T08:16:23.831Z,13356.00
2018-07-22T08:17:23.843Z,13356.00
2018-07-22T08:18:23.864Z,5176.00
2018-07-22T08:19:23.882Z,4016.00
2018-07-22T08:20:23.902Z,4124.00
2018-07-22T08:21:23.999Z,9832.00
2018-07-22T08:22:23.946Z,13000.00
2018-07-22T08:23:23.977Z,5152.00
2018-07-22T08:24:24.001Z,4852.00
2018-07-22T08:25:23.996Z,7832.00
2018-07-22T08:26:24.018Z,4480.00
2018-07-22T08:27:24.033Z,10452.00
2018-07-22T08:28:24.053Z,5884.00
2018-07-22T08:29:24.123Z,13380.00
2018-07-22T08:30:24.137Z,4268.00
2018-07-22T08:31:24.110Z,3632.00
2018-07-22T08:32:24.128Z,3932.00
2018-07-22T08:33:24.148Z,14280.00
2018-07-22T08:34:24.166Z,6780.00
2018-07-22T08:35:24.223Z,7412.00
2018-07-22T08:36:24.210Z,4748.00
2018-07-22T08:37:24.226Z,8820.00
2018-07-22T08:38:24.249Z,6392.00
2018-07-22T08:39:24.267Z,5492.00
2018-07-22T08:40:24.285Z,5424.00
2018-07-22T08:41:24.344Z,5644.00
2018-07-22T08:42:24.325Z,8300.00
2018-07-22T08:43:24.335Z,7108.00
2018-07-22T08:44:24.360Z,4260.00
2018-07-22T08:45:24.377Z,4112.00
2018-07-22T08:46:24.387Z,6856.00
2018-07-22T08:47:24.407Z,5512.00
2018-07-22T08:48:24.433Z,4984.00
2018-07-22T08:49:24.454Z,11960.00
2018-07-22T08:50:24.465Z,6900.00
2018-07-22T08:51:24.480Z,6528.00
2018-07-22T08:52:24.505Z,9648.00
2018-07-22T08:53:24.526Z,13380.00
2018-07-22T08:54:24.534Z,6328.00
2018-07-22T08:55:24.559Z,11536.00
2018-07-22T08:56:24.579Z,9860.00
2018-07-22T08:57:24.597Z,6444.00
2018-07-22T08:58:24.616Z,7504.00
2018-07-22T08:59:24.635Z,10816.00
2018-07-22T09:00:24.653Z,5792.00
2018-07-22T09:01:24.675Z,7772.00
2018-07-22T09:02:24.696Z,16576.00
2018-07-22T09:03:24.707Z,5544.00
2018-07-22T09:04:24.726Z,5480.00
2018-07-22T09:05:24.759Z,9260.00
2018-07-22T09:06:24.769Z,6036.00
2018-07-22T09:07:24.787Z,5396.00
2018-07-22T09:08:24.815Z,7952.00
2018-07-22T09:09:24.822Z,10168.00
2018-07-22T09:10:24.843Z,10324.00
2018-07-22T09:11:24.859Z,7440.00
2018-07-22T09:12:24.978Z,13568.00
2018-07-22T09:13:24.905Z,10464.00
2018-07-22T09:14:24.923Z,12968.00
2018-07-22T09:15:24.938Z,14364.00
2018-07-22T09:16:24.961Z,14572.00
2018-07-22T09:17:24.981Z,11936.00
2018-07-22T09:18:25.068Z,8028.00
2018-07-22T09:19:25.026Z,12412.00
2018-07-22T09:20:25.035Z,13592.00
2018-07-22T09:21:25.054Z,13904.00
2018-07-22T09:22:25.070Z,14068.00
2018-07-22T09:23:25.095Z,14496.00
2018-07-22T09:24:25.202Z,6876.00
2018-07-22T09:25:25.131Z,13756.00
2018-07-22T09:26:25.157Z,13908.00
2018-07-22T09:27:25.173Z,14184.00
2018-07-22T09:28:25.190Z,5608.00
2018-07-22T09:29:25.206Z,12784.00
2018-07-22T09:30:25.266Z,13588.00
2018-07-22T09:31:25.251Z,14360.00
2018-07-22T09:32:25.274Z,14344.00
2018-07-22T09:33:25.286Z,14604.00
2018-07-22T09:34:25.306Z,9640.00
2018-07-22T09:35:25.333Z,14756.00
2018-07-22T09:36:25.444Z,14100.00
2018-07-22T09:37:25.376Z,12664.00
2018-07-22T09:38:25.399Z,14848.00
2018-07-22T09:39:25.433Z,14436.00
2018-07-22T09:40:25.440Z,9512.00
2018-07-22T09:41:25.453Z,10292.00
2018-07-22T09:42:25.498Z,14912.00
2018-07-22T09:43:29.102Z,14584.00
2018-07-22T09:44:25.513Z,4700.00
2018-07-22T09:45:25.541Z,13400.00
2018-07-22T09:46:25.557Z,14912.00
2018-07-22T09:47:25.587Z,15488.00
2018-07-22T09:48:25.636Z,7216.00
2018-07-22T09:49:25.629Z,6496.00
2018-07-22T09:50:25.640Z,5760.00
2018-07-22T09:51:25.664Z,14912.00
2018-07-22T09:52:25.682Z,15392.00
2018-07-22T09:53:25.702Z,14528.00
2018-07-22T09:54:25.721Z,10208.00
2018-07-22T09:55:25.752Z,13708.00
2018-07-22T09:56:25.768Z,15712.00
2018-07-22T09:57:25.791Z,9724.00
2018-07-22T09:58:25.825Z,8584.00
2018-07-22T09:59:25.833Z,15360.00
2018-07-22T10:00:25.853Z,14568.00
2018-07-22T10:01:25.868Z,4964.00
2018-07-22T10:02:25.885Z,15776.00
2018-07-22T10:03:25.906Z,15424.00
2018-07-22T10:04:25.964Z,14944.00
2018-07-22T10:05:25.956Z,15328.00
2018-07-22T10:06:25.973Z,15328.00
2018-07-22T10:07:26.082Z,15168.00
2018-07-22T10:08:26.015Z,15232.00
2018-07-22T10:09:26.030Z,15424.00
2018-07-22T10:10:26.060Z,15744.00
2018-07-22T10:11:26.073Z,6436.00
2018-07-22T10:12:26.104Z,5652.00
2018-07-22T10:13:26.202Z,7452.00
2018-07-22T10:14:26.164Z,8880.00
2018-07-22T10:15:26.158Z,13144.00
2018-07-22T10:16:26.185Z,15936.00
2018-07-22T10:17:26.201Z,15072.00
2018-07-22T10:18:26.227Z,15008.00
2018-07-22T10:19:26.286Z,15008.00
2018-07-22T10:20:26.275Z,15072.00
2018-07-22T10:21:26.296Z,15104.00
2018-07-22T10:22:26.305Z,15200.00
2018-07-22T10:23:26.347Z,15264.00
2018-07-22T10:24:26.360Z,15264.00
2018-07-22T10:25:26.375Z,15424.00
2018-07-22T10:26:26.399Z,8848.00
2018-07-22T10:27:26.416Z,13728.00
2018-07-22T10:28:26.448Z,12400.00
2018-07-22T10:29:26.461Z,12100.00
2018-07-22T10:30:26.485Z,15488.00
2018-07-22T10:31:26.527Z,15232.00
2018-07-22T10:32:26.564Z,14912.00
2018-07-22T10:33:26.548Z,14676.00
2018-07-22T10:34:26.561Z,15232.00
2018-07-22T10:35:26.589Z,15200.00
2018-07-22T10:36:26.619Z,15296.00
2018-07-22T10:37:26.633Z,10500.00
2018-07-22T10:38:26.664Z,12660.00
2018-07-22T10:39:26.679Z,15072.00
2018-07-22T10:40:26.700Z,15200.00
2018-07-22T10:41:26.723Z,15264.00
2018-07-22T10:42:26.738Z,15328.00
2018-07-22T10:43:26.764Z,15200.00
2018-07-22T10:44:26.780Z,15520.00
2018-07-22T10:45:26.815Z,15040.00
2018-07-22T10:46:26.831Z,15488.00
2018-07-22T10:47:26.851Z,15296.00
2018-07-22T10:48:26.879Z,15392.00
2018-07-22T10:49:26.901Z,15264.00
2018-07-22T10:50:26.917Z,15424.00
2018-07-22T10:51:26.966Z,15424.00
2018-07-22T10:52:26.961Z,15424.00
2018-07-22T10:53:26.986Z,15424.00
2018-07-22T10:54:27.053Z,15360.00
2018-07-22T10:55:27.026Z,15488.00
2018-07-22T10:56:27.051Z,15648.00
2018-07-22T10:57:27.089Z,15584.00
2018-07-22T10:58:27.097Z,15552.00
2018-07-22T10:59:27.117Z,15552.00
2018-07-22T11:00:27.137Z,15680.00
2018-07-22T11:01:27.162Z,15520.00
2018-07-22T11:02:27.199Z,15552.00
2018-07-22T11:03:27.210Z,15680.00
2018-07-22T11:04:27.228Z,15616.00
2018-07-22T11:05:27.259Z,15488.00
2018-07-22T11:06:27.286Z,15456.00
2018-07-22T11:07:27.302Z,15680.00
2018-07-22T11:08:27.329Z,15296.00
2018-07-22T11:09:27.347Z,15776.00
2018-07-22T11:10:27.371Z,15616.00
2018-07-22T11:11:27.390Z,9144.00
2018-07-22T11:12:27.414Z,15904.00
2018-07-22T11:13:27.428Z,15840.00
2018-07-22T11:14:27.496Z,15648.00
2018-07-22T11:15:27.476Z,15776.00
2018-07-22T11:16:27.507Z,15680.00
2018-07-22T11:17:27.530Z,15872.00
2018-07-22T11:18:27.547Z,15744.00
2018-07-22T11:19:27.564Z,16064.00
2018-07-22T11:20:27.592Z,16032.00
2018-07-22T11:21:27.608Z,15712.00
2018-07-22T11:22:27.636Z,15520.00
2018-07-22T11:23:27.658Z,15552.00
2018-07-22T11:24:27.681Z,15488.00
2018-07-22T11:25:27.709Z,12460.00
2018-07-22T11:26:27.724Z,15904.00
2018-07-22T11:27:27.756Z,15552.00
2018-07-22T11:28:27.799Z,15744.00
2018-07-22T11:29:27.796Z,15808.00
2018-07-22T11:30:27.826Z,15712.00
2018-07-22T11:31:27.845Z,15744.00
2018-07-22T11:32:27.863Z,15648.00
2018-07-22T11:33:27.891Z,10108.00
2018-07-22T11:34:27.923Z,8428.00
2018-07-22T11:35:27.935Z,16256.00
2018-07-22T11:36:27.956Z,16128.00
2018-07-22T11:37:27.977Z,9720.00
2018-07-22T11:38:28.005Z,16192.00
2018-07-22T11:39:28.030Z,16128.00
2018-07-22T11:40:28.044Z,15968.00
2018-07-22T11:41:28.076Z,15904.00
2018-07-22T11:42:28.102Z,15840.00
2018-07-22T11:43:28.116Z,15904.00
2018-07-22T11:44:28.146Z,15936.00
2018-07-22T11:45:28.155Z,16128.00
2018-07-22T11:46:28.187Z,16064.00
2018-07-22T11:47:28.299Z,16096.00
2018-07-22T11:48:28.228Z,16032.00
2018-07-22T11:49:28.251Z,15840.00
2018-07-22T11:50:28.305Z,15936.00
2018-07-22T11:51:28.306Z,15968.00
2018-07-22T11:52:28.319Z,16032.00
2018-07-22T11:53:28.500Z,15968.00
2018-07-22T11:54:28.366Z,16160.00
2018-07-22T11:55:28.383Z,15648.00
2018-07-22T11:56:28.419Z,15520.00
2018-07-22T11:57:28.435Z,15808.00
2018-07-22T11:58:28.456Z,15744.00
2018-07-22T11:59:28.527Z,15648.00
2018-07-22T12:00:28.512Z,15776.00
2018-07-22T12:01:28.598Z,15712.00
2018-07-22T12:02:28.557Z,15840.00
2018-07-22T12:03:28.578Z,15968.00
2018-07-22T12:04:28.597Z,15872.00
2018-07-22T12:05:28.636Z,16608.00
2018-07-22T12:06:28.695Z,16416.00
2018-07-22T12:07:28.666Z,16096.00
2018-07-22T12:08:28.694Z,15872.00
2018-07-22T12:09:28.716Z,15904.00
2018-07-22T12:10:28.736Z,15776.00
2018-07-22T12:11:28.782Z,15712.00
2018-07-22T12:12:28.828Z,15648.00
2018-07-22T12:13:28.807Z,15552.00
2018-07-22T12:14:28.834Z,15648.00
2018-07-22T12:15:28.862Z,15616.00
2018-07-22T12:16:28.878Z,15616.00
2018-07-22T12:17:28.905Z,15648.00
2018-07-22T12:18:28.921Z,15584.00
2018-07-22T12:19:28.952Z,15616.00
2018-07-22T12:20:28.968Z,15616.00
2018-07-22T12:21:28.995Z,15648.00
2018-07-22T12:22:29.019Z,15552.00
2018-07-22T12:23:29.046Z,14572.00
2018-07-22T12:24:29.061Z,14392.00
2018-07-22T12:25:29.081Z,15648.00
2018-07-22T12:26:29.107Z,15712.00
2018-07-22T12:27:29.130Z,15616.00
2018-07-22T12:28:29.148Z,15392.00
2018-07-22T12:29:29.181Z,15680.00
2018-07-22T12:30:29.209Z,15552.00
2018-07-22T12:31:29.223Z,15424.00